createdAt,value
2023-01-29T00:01:57.656Z,0.45
2023-01-29T00:04:24.957Z,0.21
2023-01-29T00:06:52.034Z,0.10
2023-01-29T00:09:19.391Z,0.57
2023-01-29T00:11:47.151Z,0.58
2023-01-29T00:14:14.318Z,0.42
2023-01-29T00:16:41.231Z,0.59
2023-01-29T00:19:08.186Z,0.56
2023-01-29T00:21:35.274Z,0.52
2023-01-29T00:24:02.773Z,0.22
2023-01-29T00:26:29.807Z,0.19
2023-01-29T00:29:02.972Z,0.32
2023-01-29T00:31:30.022Z,0.46
2023-01-29T00:33:58.368Z,0.16
2023-01-29T00:36:26.493Z,0.05
2023-01-29T00:39:02.802Z,0.14
2023-01-29T00:41:50.367Z,0.42
2023-01-29T00:44:36.375Z,0.35
2023-01-29T00:47:05.028Z,0.22
2023-01-29T00:49:32.025Z,0.38
2023-01-29T00:52:17.482Z,0.45
2023-01-29T00:54:44.519Z,0.49
2023-01-29T00:57:11.432Z,0.22
2023-01-29T00:59:38.325Z,0.15
2023-01-29T01:02:23.696Z,-0.05
2023-01-29T01:04:50.701Z,0.22
2023-01-29T01:07:17.807Z,0.18
2023-01-29T01:10:03.281Z,0.41
2023-01-29T01:12:31.268Z,0.56
2023-01-29T01:14:58.440Z,0.60
2023-01-29T01:17:25.553Z,0.61
2023-01-29T01:19:52.629Z,0.84
2023-01-29T01:22:19.646Z,0.49
2023-01-29T01:24:46.839Z,0.56
2023-01-29T01:27:13.949Z,0.81
2023-01-29T01:29:41.155Z,0.80
2023-01-29T01:32:08.241Z,1.01
2023-01-29T01:34:35.905Z,1.08
2023-01-29T01:37:02.867Z,0.98
2023-01-29T01:39:30.187Z,0.71
2023-01-29T01:41:57.333Z,0.98
2023-01-29T01:44:52.285Z,1.00
2023-01-29T01:47:46.721Z,0.95
2023-01-29T01:50:37.803Z,0.84
2023-01-29T01:53:11.562Z,0.89
2023-01-29T01:55:45.198Z,0.84
2023-01-29T01:58:38.131Z,0.79
2023-01-29T02:01:08.397Z,0.83
2023-01-29T02:04:01.679Z,0.88
2023-01-29T02:06:52.003Z,0.77
2023-01-29T02:09:38.951Z,0.88
2023-01-29T02:12:09.375Z,0.41
2023-01-29T02:14:39.705Z,0.58
2023-01-29T02:17:09.905Z,0.93
2023-01-29T02:19:57.690Z,0.84
2023-01-29T02:22:56.901Z,0.87
2023-01-29T02:25:45.078Z,1.02
2023-01-29T02:28:23.935Z,1.05
2023-01-29T02:31:13.034Z,0.97
2023-01-29T02:34:01.766Z,0.93
2023-01-29T02:36:31.951Z,0.98
2023-01-29T02:39:13.353Z,0.94
2023-01-29T02:41:55.055Z,0.49
2023-01-29T02:44:51.213Z,0.92
2023-01-29T02:47:50.473Z,0.99
2023-01-29T02:50:35.720Z,1.00
2023-01-29T02:53:07.084Z,1.02
2023-01-29T02:55:55.775Z,1.05
2023-01-29T02:58:34.982Z,0.89
2023-01-29T03:01:13.655Z,1.08
2023-01-29T03:03:44.812Z,1.07
2023-01-29T03:06:28.451Z,0.69
2023-01-29T03:09:05.418Z,1.13
2023-01-29T03:11:44.650Z,1.10
2023-01-29T03:14:55.144Z,0.93
2023-01-29T03:17:27.257Z,0.96
2023-01-29T03:19:54.603Z,1.09
2023-01-29T03:22:23.942Z,1.21
2023-01-29T03:25:18.537Z,1.14
2023-01-29T03:28:14.283Z,1.10
2023-01-29T03:31:10.239Z,1.07
2023-01-29T03:33:50.116Z,1.13
2023-01-29T03:36:46.036Z,0.96
2023-01-29T03:39:15.691Z,0.71
2023-01-29T03:41:56.676Z,1.15
2023-01-29T03:44:33.876Z,1.15
2023-01-29T03:47:30.627Z,1.16
2023-01-29T03:50:30.567Z,1.10
2023-01-29T03:53:07.165Z,1.10
2023-01-29T03:55:56.039Z,1.13
2023-01-29T03:58:38.595Z,1.15
2023-01-29T04:01:12.840Z,1.16
2023-01-29T04:03:54.906Z,0.84
2023-01-29T04:06:30.213Z,0.97
2023-01-29T04:09:22.707Z,1.00
2023-01-29T04:11:58.633Z,0.35
2023-01-29T04:14:25.843Z,0.92
2023-01-29T04:16:58.104Z,0.99
2023-01-29T04:19:34.173Z,1.00
2023-01-29T04:22:17.598Z,1.05
2023-01-29T04:24:45.062Z,1.09
2023-01-29T04:27:33.663Z,1.13
2023-01-29T04:30:26.544Z,1.11
2023-01-29T04:32:53.924Z,1.11
2023-01-29T04:36:00.204Z,0.84
2023-01-29T04:38:43.519Z,1.06
2023-01-29T04:41:34.177Z,1.18
2023-01-29T04:44:32.988Z,1.07
2023-01-29T04:47:00.159Z,1.14
2023-01-29T04:49:36.184Z,0.94
2023-01-29T04:52:15.044Z,1.06
2023-01-29T04:55:00.340Z,1.10
2023-01-29T04:57:40.426Z,1.15
2023-01-29T05:00:13.853Z,1.15
2023-01-29T05:02:43.243Z,0.53
2023-01-29T05:05:12.775Z,1.22
2023-01-29T05:07:43.645Z,1.10
2023-01-29T05:10:12.101Z,1.19
2023-01-29T05:12:40.945Z,1.07
2023-01-29T05:15:17.308Z,0.69
2023-01-29T05:17:44.446Z,0.92
2023-01-29T05:20:12.480Z,0.98
2023-01-29T05:22:41.880Z,1.04
2023-01-29T05:25:23.401Z,1.03
2023-01-29T05:28:08.511Z,0.59
2023-01-29T05:30:38.128Z,0.81
2023-01-29T05:33:11.632Z,0.97
2023-01-29T05:35:38.744Z,0.54
2023-01-29T05:38:05.748Z,0.37
2023-01-29T05:40:33.070Z,0.54
2023-01-29T05:43:00.114Z,0.47
2023-01-29T05:45:27.171Z,0.69
2023-01-29T05:47:58.553Z,0.81
2023-01-29T05:50:26.890Z,0.78
2023-01-29T05:53:00.850Z,0.73
2023-01-29T05:55:32.247Z,0.81
2023-01-29T05:57:59.268Z,0.50
2023-01-29T06:00:26.519Z,0.52
2023-01-29T06:02:53.738Z,0.51
2023-01-29T06:05:20.869Z,0.49
2023-01-29T06:07:47.978Z,0.82
2023-01-29T06:10:18.459Z,0.80
2023-01-29T06:12:46.153Z,0.57
2023-01-29T06:15:15.824Z,0.20
2023-01-29T06:17:43.277Z,0.79
2023-01-29T06:20:10.880Z,0.48
2023-01-29T06:22:37.990Z,0.72
2023-01-29T06:25:05.550Z,0.38
2023-01-29T06:27:32.451Z,0.50
2023-01-29T06:29:59.406Z,0.38
2023-01-29T06:32:29.295Z,0.39
2023-01-29T06:34:56.312Z,0.66
2023-01-29T06:37:23.364Z,0.84
2023-01-29T06:39:50.580Z,0.55
2023-01-29T06:42:17.659Z,0.85
2023-01-29T06:44:45.048Z,0.16
2023-01-29T06:47:12.102Z,0.72
2023-01-29T06:49:38.989Z,0.84
2023-01-29T06:52:06.050Z,0.86
2023-01-29T06:54:33.083Z,0.91
2023-01-29T06:57:00.117Z,0.84
2023-01-29T06:59:27.257Z,0.31
2023-01-29T07:01:54.243Z,0.55
2023-01-29T07:04:21.411Z,0.98
2023-01-29T07:06:48.399Z,0.64
2023-01-29T07:09:15.387Z,0.39
2023-01-29T07:11:42.443Z,0.89
2023-01-29T07:14:09.481Z,0.69
2023-01-29T07:16:36.427Z,0.84
2023-01-29T07:19:03.413Z,0.39
2023-01-29T07:21:30.520Z,0.61
2023-01-29T07:23:57.603Z,0.64
2023-01-29T07:26:24.538Z,0.45
2023-01-29T07:28:51.595Z,0.71
2023-01-29T07:31:18.730Z,0.68
2023-01-29T07:33:46.389Z,0.37
2023-01-29T07:36:14.210Z,0.77
2023-01-29T07:38:41.439Z,0.71
2023-01-29T07:41:09.978Z,0.66
2023-01-29T07:43:37.014Z,0.72
2023-01-29T07:46:05.503Z,0.41
2023-01-29T07:48:32.551Z,0.59
2023-01-29T07:50:59.654Z,0.76
2023-01-29T07:53:28.088Z,0.66
2023-01-29T07:55:55.701Z,0.53
2023-01-29T07:58:22.866Z,0.75
2023-01-29T08:00:50.193Z,0.46
2023-01-29T08:03:20.243Z,0.57
2023-01-29T08:05:47.301Z,0.38
2023-01-29T08:08:14.792Z,0.43
2023-01-29T08:10:42.423Z,0.85
2023-01-29T08:13:10.243Z,0.65
2023-01-29T08:15:39.193Z,0.70
2023-01-29T08:18:06.570Z,0.78
2023-01-29T08:20:33.642Z,0.68
2023-01-29T08:23:06.292Z,0.80
2023-01-29T08:25:34.293Z,0.57
2023-01-29T08:28:01.468Z,0.89
2023-01-29T08:30:31.314Z,1.10
2023-01-29T08:32:58.956Z,0.82
2023-01-29T08:35:26.690Z,0.94
2023-01-29T08:37:59.532Z,1.07
2023-01-29T08:40:28.170Z,1.06
2023-01-29T08:43:03.523Z,1.33
2023-01-29T08:45:34.561Z,1.04
2023-01-29T08:48:01.714Z,0.89
2023-01-29T08:50:30.875Z,1.42
2023-01-29T08:52:59.411Z,1.18
2023-01-29T08:55:27.237Z,1.22
2023-01-29T08:57:54.577Z,1.50
2023-01-29T09:00:21.976Z,1.47
2023-01-29T09:02:49.048Z,1.35
2023-01-29T09:05:16.567Z,1.31
2023-01-29T09:07:44.152Z,1.41
2023-01-29T09:10:12.657Z,0.95
2023-01-29T09:12:39.614Z,1.24
2023-01-29T09:15:07.075Z,1.38
2023-01-29T09:17:34.129Z,1.17
2023-01-29T09:20:01.117Z,1.26
2023-01-29T09:22:28.667Z,0.83
2023-01-29T09:24:56.054Z,1.01
2023-01-29T09:27:23.884Z,1.24
2023-01-29T09:29:50.838Z,0.83
2023-01-29T09:32:37.712Z,1.05
2023-01-29T09:35:05.536Z,1.14
2023-01-29T09:37:32.543Z,1.23
2023-01-29T09:39:59.505Z,1.11
2023-01-29T09:42:50.933Z,1.14
2023-01-29T09:45:30.595Z,1.17
2023-01-29T09:48:01.682Z,1.17
2023-01-29T09:50:51.760Z,0.87
2023-01-29T09:53:21.809Z,1.12
2023-01-29T09:55:51.604Z,1.16
2023-01-29T09:58:32.191Z,1.14
2023-01-29T10:01:27.292Z,1.16
2023-01-29T10:03:57.165Z,1.06
2023-01-29T10:06:24.151Z,1.13
2023-01-29T10:08:57.002Z,0.91
2023-01-29T10:11:39.554Z,0.87
2023-01-29T10:14:17.713Z,0.45
2023-01-29T10:16:50.193Z,0.82
2023-01-29T10:19:43.653Z,0.89
2023-01-29T10:22:46.223Z,0.85
2023-01-29T10:25:21.058Z,0.71
2023-01-29T10:27:52.530Z,0.53
2023-01-29T10:30:31.842Z,0.78
2023-01-29T10:33:03.130Z,0.28
2023-01-29T10:35:41.491Z,0.49
2023-01-29T10:38:23.446Z,0.66
2023-01-29T10:41:02.932Z,0.28
2023-01-29T10:43:37.810Z,0.68
2023-01-29T10:46:16.900Z,0.67
2023-01-29T10:49:08.334Z,0.72
2023-01-29T10:51:44.673Z,0.75
2023-01-29T10:54:53.038Z,0.78
2023-01-29T10:57:28.870Z,0.85
2023-01-29T11:00:10.717Z,0.82
2023-01-29T11:02:41.875Z,0.52
2023-01-29T11:05:39.342Z,0.43
2023-01-29T11:08:15.126Z,0.58
2023-01-29T11:10:53.712Z,0.41
2023-01-29T11:13:23.236Z,0.56
2023-01-29T11:15:52.888Z,0.48
2023-01-29T11:18:19.966Z,0.69
2023-01-29T11:20:59.392Z,0.91
2023-01-29T11:23:28.906Z,0.65
2023-01-29T11:25:57.935Z,0.75
2023-01-29T11:28:37.916Z,0.78
2023-01-29T11:31:26.317Z,0.46
2023-01-29T11:34:05.121Z,0.93
2023-01-29T11:36:38.359Z,0.61
2023-01-29T11:39:21.655Z,0.93
2023-01-29T11:42:01.536Z,0.97
2023-01-29T11:44:33.376Z,0.92
2023-01-29T11:47:21.376Z,0.94
2023-01-29T11:49:49.817Z,0.83
2023-01-29T11:52:21.120Z,0.90
2023-01-29T11:55:04.807Z,0.77
2023-01-29T11:57:35.939Z,0.90
2023-01-29T12:00:07.388Z,0.96
2023-01-29T12:02:42.538Z,0.68
2023-01-29T12:05:22.575Z,0.94
2023-01-29T12:07:56.234Z,1.03
2023-01-29T12:10:29.468Z,0.97
2023-01-29T12:13:12.144Z,0.95
2023-01-29T12:15:40.585Z,0.64
2023-01-29T12:18:32.239Z,0.89
2023-01-29T12:21:05.170Z,0.74
2023-01-29T12:23:53.510Z,0.87
2023-01-29T12:26:38.540Z,0.87
2023-01-29T12:29:05.340Z,1.06
2023-01-29T12:31:55.056Z,0.94
2023-01-29T12:34:39.445Z,0.78
2023-01-29T12:37:31.046Z,1.02
2023-01-29T12:39:58.144Z,0.74
2023-01-29T12:42:28.162Z,1.02
2023-01-29T12:45:00.025Z,1.13
2023-01-29T12:47:43.070Z,1.00
2023-01-29T12:50:33.247Z,0.75
2023-01-29T12:53:26.433Z,0.97
2023-01-29T12:55:59.427Z,0.65
2023-01-29T12:58:38.302Z,1.09
2023-01-29T13:01:41.007Z,1.03
2023-01-29T13:04:21.566Z,0.74
2023-01-29T13:06:54.315Z,0.82
2023-01-29T13:09:26.949Z,0.83
2023-01-29T13:11:58.529Z,0.95
2023-01-29T13:14:50.501Z,1.16
2023-01-29T13:17:24.876Z,1.19
2023-01-29T13:19:55.109Z,1.12
2023-01-29T13:22:26.365Z,1.10
2023-01-29T13:25:03.993Z,0.96
2023-01-29T13:27:34.535Z,0.79
2023-01-29T13:30:01.949Z,1.10
2023-01-29T13:32:35.625Z,1.08
2023-01-29T13:35:15.088Z,0.46
2023-01-29T13:37:52.445Z,0.98
2023-01-29T13:40:26.021Z,0.71
2023-01-29T13:42:54.473Z,1.15
2023-01-29T13:45:45.711Z,0.61
2023-01-29T13:48:28.139Z,0.98
2023-01-29T13:50:57.847Z,0.97
2023-01-29T13:53:28.097Z,1.23
2023-01-29T13:55:55.547Z,1.00
2023-01-29T13:58:31.712Z,1.24
2023-01-29T14:01:02.156Z,1.06
2023-01-29T14:03:35.915Z,1.06
2023-01-29T14:06:38.564Z,0.63
2023-01-29T14:09:31.229Z,0.82
2023-01-29T14:11:58.127Z,0.78
2023-01-29T14:14:51.565Z,0.93
2023-01-29T14:17:20.983Z,0.66
2023-01-29T14:19:54.030Z,0.38
2023-01-29T14:22:24.840Z,0.68
2023-01-29T14:24:57.364Z,1.00
2023-01-29T14:27:28.087Z,0.97
2023-01-29T14:30:09.974Z,0.68
2023-01-29T14:32:40.825Z,0.69
2023-01-29T14:35:28.413Z,0.82
2023-01-29T14:37:59.341Z,0.79
2023-01-29T14:40:29.819Z,0.87
2023-01-29T14:43:24.428Z,0.77
2023-01-29T14:45:51.856Z,0.36
2023-01-29T14:48:52.000Z,0.69
2023-01-29T14:51:20.855Z,0.67
2023-01-29T14:54:00.817Z,0.87
2023-01-29T14:56:33.005Z,0.84
2023-01-29T14:59:23.575Z,0.76
2023-01-29T15:01:56.327Z,0.62
2023-01-29T15:04:30.706Z,0.70
2023-01-29T15:07:15.082Z,0.82
2023-01-29T15:09:57.272Z,0.85
2023-01-29T15:12:36.431Z,0.81
2023-01-29T15:15:14.475Z,0.66
2023-01-29T15:18:35.695Z,0.74
2023-01-29T15:21:05.937Z,0.51
2023-01-29T15:23:38.800Z,0.65
2023-01-29T15:26:08.387Z,0.66
2023-01-29T15:28:36.177Z,0.76
2023-01-29T15:31:07.932Z,0.31
2023-01-29T15:33:38.753Z,0.66
2023-01-29T15:36:07.865Z,0.38
2023-01-29T15:38:35.852Z,0.02
2023-01-29T15:41:15.810Z,-0.04
2023-01-29T15:43:45.667Z,0.52
2023-01-29T15:46:25.878Z,0.56
2023-01-29T15:48:55.445Z,0.32
2023-01-29T15:51:27.707Z,0.32
2023-01-29T15:53:58.659Z,0.53
2023-01-29T15:56:29.667Z,0.03
2023-01-29T15:59:01.024Z,-0.01
2023-01-29T16:01:29.287Z,0.55
2023-01-29T16:04:02.532Z,0.00
2023-01-29T16:06:38.969Z,0.56
2023-01-29T16:09:07.528Z,0.43
2023-01-29T16:11:35.837Z,0.04
2023-01-29T16:14:03.967Z,0.14
2023-01-29T16:16:31.284Z,-0.06
2023-01-29T16:19:00.702Z,0.46
2023-01-29T16:21:39.902Z,0.45
2023-01-29T16:24:11.956Z,0.16
2023-01-29T16:26:50.002Z,0.48
2023-01-29T16:29:22.429Z,0.55
2023-01-29T16:31:54.419Z,0.59
2023-01-29T16:34:32.812Z,0.55
2023-01-29T16:37:03.408Z,0.12
2023-01-29T16:39:38.451Z,0.35
2023-01-29T16:42:12.479Z,0.52
2023-01-29T16:45:07.535Z,0.35
2023-01-29T16:47:41.629Z,0.37
2023-01-29T16:50:35.992Z,0.46
2023-01-29T16:53:12.313Z,0.47
2023-01-29T16:55:42.490Z,0.27
2023-01-29T16:58:30.862Z,0.07
2023-01-29T17:01:09.676Z,0.26
2023-01-29T17:03:38.425Z,0.18
2023-01-29T17:06:13.168Z,0.29
2023-01-29T17:08:43.190Z,0.28
2023-01-29T17:11:12.533Z,0.15
2023-01-29T17:13:43.866Z,0.25
2023-01-29T17:16:16.208Z,-0.04
2023-01-29T17:18:43.207Z,0.21
2023-01-29T17:21:10.336Z,0.22
2023-01-29T17:23:37.580Z,0.15
2023-01-29T17:26:12.405Z,0.19
2023-01-29T17:28:40.786Z,-0.13
2023-01-29T17:31:08.859Z,0.01
2023-01-29T17:33:38.526Z,-0.24
2023-01-29T17:36:06.019Z,0.06
2023-01-29T17:38:33.413Z,0.18
2023-01-29T17:41:06.444Z,0.13
2023-01-29T17:43:34.691Z,-0.02
2023-01-29T17:46:01.914Z,-0.02
2023-01-29T17:48:30.921Z,-0.15
2023-01-29T17:51:02.145Z,0.05
2023-01-29T17:53:44.223Z,0.16
2023-01-29T17:56:16.305Z,0.15
2023-01-29T17:58:43.525Z,0.10
2023-01-29T18:01:10.698Z,0.18
2023-01-29T18:03:37.887Z,-0.13
2023-01-29T18:06:09.683Z,0.06
2023-01-29T18:08:39.713Z,-0.07
2023-01-29T18:11:07.280Z,-0.02
2023-01-29T18:13:36.468Z,-0.06
2023-01-29T18:16:03.978Z,0.06
2023-01-29T18:18:30.905Z,-0.33
2023-01-29T18:20:57.877Z,0.09
2023-01-29T18:23:25.106Z,-0.04
2023-01-29T18:25:52.947Z,-0.05
2023-01-29T18:28:20.021Z,0.35
2023-01-29T18:30:47.824Z,0.32
2023-01-29T18:33:16.240Z,-0.13
2023-01-29T18:35:50.275Z,0.40
2023-01-29T18:38:18.132Z,0.40
2023-01-29T18:40:45.066Z,-0.34
2023-01-29T18:43:13.496Z,0.34
2023-01-29T18:45:40.689Z,0.36
2023-01-29T18:48:07.973Z,0.13
2023-01-29T18:50:36.304Z,0.28
2023-01-29T18:53:04.484Z,-0.13
2023-01-29T18:55:31.527Z,0.17
2023-01-29T18:58:25.493Z,-0.05
2023-01-29T19:00:48.001Z,0.17
2023-01-29T19:03:15.148Z,-1.19
2023-01-29T19:05:42.347Z,0.22
2023-01-29T19:08:09.897Z,0.30
2023-01-29T19:10:37.179Z,-0.03
2023-01-29T19:13:05.852Z,-0.06
2023-01-29T19:15:34.049Z,-0.19
2023-01-29T19:18:01.179Z,0.22
2023-01-29T19:20:28.359Z,0.21
2023-01-29T19:22:55.324Z,-0.02
2023-01-29T19:25:23.752Z,-0.06
2023-01-29T19:27:50.930Z,-0.14
2023-01-29T19:30:19.379Z,-0.33
2023-01-29T19:32:46.427Z,0.05
2023-01-29T19:35:13.477Z,-0.25
2023-01-29T19:37:40.580Z,0.06
2023-01-29T19:40:08.718Z,0.20
2023-01-29T19:42:37.596Z,0.16
2023-01-29T19:45:05.729Z,0.00
2023-01-29T19:47:33.809Z,-0.40
2023-01-29T19:50:01.877Z,0.25
2023-01-29T19:52:51.233Z,0.10
2023-01-29T19:55:20.847Z,0.02
2023-01-29T19:57:48.256Z,-0.23
2023-01-29T20:00:17.622Z,0.09
2023-01-29T20:02:44.726Z,-0.10
2023-01-29T20:05:13.177Z,0.08
2023-01-29T20:07:41.348Z,-0.41
2023-01-29T20:10:11.584Z,-0.10
2023-01-29T20:12:38.738Z,-0.11
2023-01-29T20:15:07.466Z,-0.31
2023-01-29T20:17:34.616Z,0.10
2023-01-29T20:20:01.633Z,-0.27
2023-01-29T20:22:30.000Z,-0.44
2023-01-29T20:24:57.551Z,-0.06
2023-01-29T20:27:24.992Z,-1.15
2023-01-29T20:29:52.790Z,-0.20
2023-01-29T20:32:19.851Z,-0.41
2023-01-29T20:34:52.160Z,0.00
2023-01-29T20:37:19.765Z,-0.15
2023-01-29T20:39:47.532Z,-0.14
2023-01-29T20:42:14.819Z,-0.07
2023-01-29T20:44:42.276Z,-0.05
2023-01-29T20:47:59.389Z,0.02
2023-01-29T20:50:26.318Z,-0.22
2023-01-29T20:52:53.387Z,-0.11
2023-01-29T20:55:20.429Z,-0.21
2023-01-29T20:58:06.357Z,-0.21
2023-01-29T21:01:26.526Z,0.11
2023-01-29T21:03:53.553Z,0.12
2023-01-29T21:06:20.908Z,-0.36
2023-01-29T21:08:47.911Z,-0.04
2023-01-29T21:11:14.839Z,-0.02
2023-01-29T21:13:42.754Z,-0.13
2023-01-29T21:16:11.474Z,-0.22
2023-01-29T21:18:38.736Z,0.02
2023-01-29T21:21:05.935Z,-0.35
2023-01-29T21:23:32.908Z,-0.49
2023-01-29T21:26:04.662Z,0.08
2023-01-29T21:28:32.925Z,0.12
2023-01-29T21:31:10.950Z,-0.06
2023-01-29T21:33:38.424Z,-0.43
2023-01-29T21:36:06.600Z,-0.03
2023-01-29T21:38:33.747Z,-0.35
2023-01-29T21:41:05.377Z,-0.43
2023-01-29T21:43:32.491Z,-0.32
2023-01-29T21:46:03.993Z,-0.02
2023-01-29T21:48:30.988Z,-0.11
2023-01-29T21:51:23.870Z,-0.25
2023-01-29T21:53:50.807Z,-0.07
2023-01-29T21:56:19.827Z,-0.22
2023-01-29T21:58:50.026Z,-0.45
2023-01-29T22:01:37.585Z,-2.05
2023-01-29T22:04:04.007Z,-0.77
2023-01-29T22:06:30.959Z,-0.12
2023-01-29T22:08:57.998Z,-0.46
2023-01-29T22:11:24.987Z,-0.54
2023-01-29T22:13:51.983Z,-0.25
2023-01-29T22:16:19.037Z,0.02
2023-01-29T22:18:46.019Z,-0.47
2023-01-29T22:21:12.962Z,-0.16
2023-01-29T22:23:40.122Z,-0.34
2023-01-29T22:26:09.494Z,0.02
2023-01-29T22:28:36.542Z,-0.66
2023-01-29T22:31:05.304Z,-0.23
2023-01-29T22:36:21.055Z,0.03
2023-01-29T22:38:48.129Z,-0.41
2023-01-29T22:41:15.481Z,-0.08
2023-01-29T22:43:44.127Z,-0.35
2023-01-29T22:46:12.028Z,0.07
2023-01-29T22:48:39.097Z,-0.10
2023-01-29T22:51:13.032Z,-0.56
2023-01-29T22:53:43.328Z,-0.13
2023-01-29T22:56:11.514Z,-0.12
2023-01-29T22:58:38.939Z,-0.19
2023-01-29T23:01:05.922Z,-0.04
2023-01-29T23:03:33.493Z,-0.18
2023-01-29T23:06:00.634Z,-0.15
2023-01-29T23:08:27.946Z,-0.14
2023-01-29T23:10:54.954Z,0.08
2023-01-29T23:13:21.795Z,-0.07
2023-01-29T23:15:58.502Z,-0.52
2023-01-29T23:18:25.459Z,-0.57
2023-01-29T23:20:57.488Z,-0.51
2023-01-29T23:23:24.525Z,-0.28
2023-01-29T23:26:16.427Z,-0.84
2023-01-29T23:28:43.898Z,-0.33
2023-01-29T23:31:11.581Z,-0.65
2023-01-29T23:33:38.792Z,-0.83
2023-01-29T23:36:07.040Z,-0.64
2023-01-29T23:38:34.459Z,-0.52
2023-01-29T23:41:01.488Z,-0.61
2023-01-29T23:43:28.903Z,-0.50
2023-01-29T23:45:56.435Z,-0.46
2023-01-29T23:48:24.129Z,-0.54
2023-01-29T23:50:51.163Z,-0.53
2023-01-29T23:53:18.550Z,-0.61
2023-01-29T23:55:56.982Z,-0.63
2023-01-29T23:58:24.183Z,-0.78
